createdAt,value
2022-11-10T00:00:42.399Z,96761.31
2022-11-10T00:02:14.187Z,96763.09
2022-11-10T00:03:48.808Z,96767.66
2022-11-10T00:05:20.703Z,96769.31
2022-11-10T00:06:52.518Z,96765.88
2022-11-10T00:08:24.341Z,96769.22
2022-11-10T00:09:56.152Z,96772.44
2022-11-10T00:11:27.922Z,96770.22
2022-11-10T00:13:00.994Z,96770.88
2022-11-10T00:14:51.274Z,96779.22
2022-11-10T00:16:41.552Z,96773.97
2022-11-10T00:18:13.335Z,96774.75
2022-11-10T00:19:46.606Z,96774.13
2022-11-10T00:21:18.539Z,96781.69
2022-11-10T00:22:50.528Z,96786.88
2022-11-10T00:24:22.326Z,96784.47
2022-11-10T00:25:54.093Z,96779.91
2022-11-10T00:27:25.833Z,96782.13
2022-11-10T00:28:57.659Z,96783.69
2022-11-10T00:30:29.394Z,96792.13
2022-11-10T00:32:01.157Z,96793.78
2022-11-10T00:33:34.607Z,96793.34
2022-11-10T00:35:08.983Z,96791.13
2022-11-10T00:36:40.805Z,96790.78
2022-11-10T00:38:12.562Z,96792.22
2022-11-10T00:39:44.309Z,96801.69
2022-11-10T00:41:16.058Z,96798.34
2022-11-10T00:42:47.881Z,96801.03
2022-11-10T00:44:19.654Z,96804.34
2022-11-10T00:45:51.711Z,96808.16
2022-11-10T00:47:23.443Z,96813.16
2022-11-10T00:48:55.264Z,96807.47
2022-11-10T00:50:28.428Z,96807.91
2022-11-10T00:52:00.180Z,96815.81
2022-11-10T00:53:31.941Z,96816.50
2022-11-10T00:55:04.177Z,96817.38
2022-11-10T00:56:35.860Z,96823.38
2022-11-10T00:58:07.594Z,96818.72
2022-11-10T00:59:39.389Z,96821.50
2022-11-10T01:01:11.251Z,96821.38
2022-11-10T01:02:43.004Z,96818.72
2022-11-10T01:04:14.727Z,96824.38
2022-11-10T01:05:47.868Z,96831.19
2022-11-10T01:07:19.651Z,96827.06
2022-11-10T01:08:51.452Z,96824.06
2022-11-10T01:10:23.176Z,96837.41
2022-11-10T01:11:54.874Z,96832.06
2022-11-10T01:13:27.091Z,96830.41
2022-11-10T01:14:58.910Z,96831.97
2022-11-10T01:16:31.398Z,96835.28
2022-11-10T01:18:03.298Z,96824.50
2022-11-10T01:19:35.079Z,96827.03
2022-11-10T01:21:08.212Z,96832.97
2022-11-10T01:22:40.724Z,96844.53
2022-11-10T01:24:12.471Z,96833.31
2022-11-10T01:25:44.320Z,96840.38
2022-11-10T01:27:16.097Z,96842.72
2022-11-10T01:28:47.866Z,96838.94
2022-11-10T01:30:19.638Z,96844.41
2022-11-10T01:31:51.426Z,96846.66
2022-11-10T01:33:23.488Z,96848.53
2022-11-10T01:34:57.210Z,96848.31
2022-11-10T01:36:30.485Z,96845.06
2022-11-10T01:38:02.227Z,96848.41
2022-11-10T01:39:34.094Z,96847.28
2022-11-10T01:41:09.327Z,96852.28
2022-11-10T01:42:45.616Z,96848.66
2022-11-10T01:44:18.242Z,96848.19
2022-11-10T01:45:51.345Z,96855.44
2022-11-10T01:47:23.054Z,96859.50
2022-11-10T01:48:55.738Z,96848.19
2022-11-10T01:50:28.937Z,96856.22
2022-11-10T01:52:03.617Z,96850.53
2022-11-10T01:53:36.808Z,96856.97
2022-11-10T01:55:08.746Z,96855.72
2022-11-10T01:56:42.387Z,96859.28
2022-11-10T01:58:15.228Z,96865.94
2022-11-10T01:59:47.564Z,96859.94
2022-11-10T02:01:19.379Z,96866.25
2022-11-10T02:02:54.423Z,96871.28
2022-11-10T02:04:26.162Z,96868.38
2022-11-10T02:05:57.852Z,96861.59
2022-11-10T02:07:31.086Z,96870.38
2022-11-10T02:09:02.842Z,96874.50
2022-11-10T02:10:34.592Z,96874.38
2022-11-10T02:12:06.312Z,96877.88
2022-11-10T02:13:38.031Z,96875.56
2022-11-10T02:15:12.404Z,96877.66
2022-11-10T02:16:44.120Z,96880.78
2022-11-10T02:18:15.821Z,96883.44
2022-11-10T02:19:47.492Z,96878.22
2022-11-10T02:21:20.823Z,96872.81
2022-11-10T02:22:52.562Z,96881.53
2022-11-10T02:24:24.287Z,96879.09
2022-11-10T02:25:56.156Z,96881.16
2022-11-10T02:27:27.895Z,96883.69
2022-11-10T02:28:59.590Z,96887.50
2022-11-10T02:30:31.272Z,96886.06
2022-11-10T02:32:03.074Z,96892.16
2022-11-10T02:33:34.834Z,96892.72
2022-11-10T02:35:07.364Z,96884.81
2022-11-10T02:36:40.454Z,96895.09
2022-11-10T02:38:12.346Z,96891.19
2022-11-10T02:39:44.048Z,96892.09
2022-11-10T02:41:15.778Z,96891.75
2022-11-10T02:42:47.531Z,96894.72
2022-11-10T02:44:19.695Z,96899.63
2022-11-10T02:45:51.394Z,96906.31
2022-11-10T02:47:23.585Z,96904.41
2022-11-10T02:48:55.302Z,96906.84
2022-11-10T02:50:27.007Z,96902.03
2022-11-10T02:52:00.108Z,96913.38
2022-11-10T02:53:31.872Z,96909.25
2022-11-10T02:55:04.048Z,96915.16
2022-11-10T02:56:35.746Z,96917.94
2022-11-10T02:58:07.754Z,96916.47
2022-11-10T02:59:39.466Z,96913.47
2022-11-10T03:01:11.296Z,96914.28
2022-11-10T03:02:43.063Z,96923.94
2022-11-10T03:04:14.799Z,96917.38
2022-11-10T03:05:46.520Z,96930.09
2022-11-10T03:07:19.583Z,96930.94
2022-11-10T03:08:51.336Z,96934.75
2022-11-10T03:10:23.067Z,96939.53
2022-11-10T03:11:54.820Z,96941.69
2022-11-10T03:13:35.702Z,96942.53
2022-11-10T03:15:18.302Z,96946.38
2022-11-10T03:16:50.008Z,96948.97
2022-11-10T03:18:21.803Z,96952.72
2022-11-10T03:19:53.554Z,96959.94
2022-11-10T03:21:25.323Z,96963.41
2022-11-10T03:23:02.172Z,96960.03
2022-11-10T03:24:33.944Z,96964.72
2022-11-10T03:26:05.730Z,96965.16
2022-11-10T03:27:37.525Z,96965.75
2022-11-10T03:29:09.242Z,96970.41
2022-11-10T03:30:41.043Z,96966.72
2022-11-10T03:32:12.782Z,96969.44
2022-11-10T03:33:44.555Z,96970.63
2022-11-10T03:35:16.527Z,96982.53
2022-11-10T03:36:48.269Z,96980.53
2022-11-10T03:38:21.529Z,96992.03
2022-11-10T03:39:53.186Z,96992.72
2022-11-10T03:41:24.958Z,96991.19
2022-11-10T03:42:56.772Z,96986.50
2022-11-10T03:44:28.526Z,96989.19
2022-11-10T03:46:00.242Z,96992.75
2022-11-10T03:47:31.966Z,96996.16
2022-11-10T03:49:03.768Z,97004.47
2022-11-10T03:50:35.459Z,97003.28
2022-11-10T03:52:07.171Z,97004.03
2022-11-10T03:53:40.289Z,97009.50
2022-11-10T03:55:12.433Z,97014.38
2022-11-10T03:56:44.175Z,97023.31
2022-11-10T03:58:15.946Z,97011.22
2022-11-10T03:59:47.687Z,97011.69
2022-11-10T04:01:19.460Z,97015.50
2022-11-10T04:02:51.243Z,97025.69
2022-11-10T04:04:41.250Z,97026.94
2022-11-10T04:06:31.368Z,97028.41
2022-11-10T04:08:21.769Z,97036.25
2022-11-10T04:09:54.919Z,97038.88
2022-11-10T04:11:45.290Z,97038.69
2022-11-10T04:13:35.703Z,97040.75
2022-11-10T04:15:27.248Z,97034.91
2022-11-10T04:16:59.171Z,97040.38
2022-11-10T04:18:31.012Z,97049.25
2022-11-10T04:20:03.834Z,97045.03
2022-11-10T04:21:35.559Z,97048.94
2022-11-10T04:23:26.029Z,97039.56
2022-11-10T04:24:59.222Z,97043.41
2022-11-10T04:26:30.999Z,97043.53
2022-11-10T04:28:02.779Z,97044.91
2022-11-10T04:29:34.768Z,97041.72
2022-11-10T04:31:06.634Z,97051.69
2022-11-10T04:32:38.376Z,97041.03
2022-11-10T04:34:11.944Z,97051.97
2022-11-10T04:35:43.651Z,97056.00
2022-11-10T04:37:15.378Z,97043.16
2022-11-10T04:38:47.359Z,97045.31
2022-11-10T04:40:20.534Z,97054.50
2022-11-10T04:41:52.236Z,97046.03
2022-11-10T04:43:24.340Z,97049.34
2022-11-10T04:44:56.429Z,97047.78
2022-11-10T04:46:30.289Z,97060.28
2022-11-10T04:48:02.089Z,97062.66
2022-11-10T04:49:33.873Z,97064.47
2022-11-10T04:51:06.188Z,97055.81
2022-11-10T04:52:37.942Z,97069.69
2022-11-10T04:54:11.112Z,97073.28
2022-11-10T04:55:44.475Z,97070.53
2022-11-10T04:57:16.264Z,97073.72
2022-11-10T04:58:48.177Z,97067.50
2022-11-10T05:00:20.087Z,97067.09
2022-11-10T05:01:51.860Z,97070.00
2022-11-10T05:03:24.057Z,97073.72
2022-11-10T05:04:56.066Z,97067.81
2022-11-10T05:06:27.928Z,97081.19
2022-11-10T05:07:59.980Z,97077.78
2022-11-10T05:09:31.726Z,97081.69
2022-11-10T05:11:04.984Z,97084.03
2022-11-10T05:12:36.671Z,97087.78
2022-11-10T05:14:08.489Z,97097.78
2022-11-10T05:15:42.168Z,97105.78
2022-11-10T05:17:13.894Z,97105.31
2022-11-10T05:18:45.617Z,97108.47
2022-11-10T05:20:17.536Z,97104.53
2022-11-10T05:21:49.245Z,97104.22
2022-11-10T05:23:39.093Z,97104.47
2022-11-10T05:25:11.226Z,97105.31
2022-11-10T05:26:44.369Z,97113.78
2022-11-10T05:28:17.045Z,97116.88
2022-11-10T05:29:48.750Z,97120.81
2022-11-10T05:31:20.514Z,97124.09
2022-11-10T05:32:52.321Z,97130.50
2022-11-10T05:34:24.113Z,97128.97
2022-11-10T05:35:55.890Z,97138.03
2022-11-10T05:37:27.628Z,97147.75
2022-11-10T05:38:59.339Z,97147.56
2022-11-10T05:40:31.269Z,97146.47
2022-11-10T05:42:04.491Z,97145.38
2022-11-10T05:43:36.217Z,97147.13
2022-11-10T05:45:09.013Z,97150.84
2022-11-10T05:46:40.715Z,97162.28
2022-11-10T05:48:12.498Z,97161.03
2022-11-10T05:49:44.235Z,97161.94
2022-11-10T05:51:16.027Z,97158.03
2022-11-10T05:52:50.380Z,97164.47
2022-11-10T05:54:22.297Z,97161.50
2022-11-10T05:55:53.967Z,97150.53
2022-11-10T05:57:27.642Z,97158.03
2022-11-10T05:58:59.359Z,97156.66
2022-11-10T06:00:31.583Z,97151.97
2022-11-10T06:02:10.514Z,97157.59
2022-11-10T06:03:45.336Z,97166.19
2022-11-10T06:05:17.178Z,97165.88
2022-11-10T06:06:48.972Z,97161.31
2022-11-10T06:08:21.103Z,97160.38
2022-11-10T06:09:52.898Z,97161.63
2022-11-10T06:11:24.932Z,97167.22
2022-11-10T06:12:58.098Z,97160.38
2022-11-10T06:14:29.955Z,97170.97
2022-11-10T06:16:01.761Z,97179.88
2022-11-10T06:17:33.504Z,97184.53
2022-11-10T06:19:05.408Z,97196.75
2022-11-10T06:20:37.181Z,97203.56
2022-11-10T06:22:08.986Z,97206.06
2022-11-10T06:23:40.817Z,97202.16
2022-11-10T06:25:12.640Z,97203.97
2022-11-10T06:26:44.392Z,97213.25
2022-11-10T06:28:17.750Z,97219.06
2022-11-10T06:29:49.519Z,97227.19
2022-11-10T06:31:21.319Z,97233.59
2022-11-10T06:32:53.202Z,97231.47
2022-11-10T06:34:25.096Z,97232.06
2022-11-10T06:35:56.886Z,97240.19
2022-11-10T06:37:28.719Z,97239.28
2022-11-10T06:39:00.449Z,97237.56
2022-11-10T06:40:32.268Z,97234.59
2022-11-10T06:42:04.159Z,97246.91
2022-11-10T06:43:37.385Z,97235.19
2022-11-10T06:45:09.930Z,97237.72
2022-11-10T06:46:42.523Z,97234.75
2022-11-10T06:48:14.473Z,97249.47
2022-11-10T06:49:50.284Z,97252.75
2022-11-10T06:51:24.390Z,97247.47
2022-11-10T06:52:56.293Z,97248.72
2022-11-10T06:54:28.080Z,97245.72
2022-11-10T06:55:59.872Z,97238.97
2022-11-10T06:57:37.064Z,97244.13
2022-11-10T06:59:12.596Z,97253.22
2022-11-10T07:00:44.467Z,97258.25
2022-11-10T07:02:16.309Z,97261.91
2022-11-10T07:04:12.990Z,97267.16
2022-11-10T07:05:40.124Z,97270.28
2022-11-10T07:07:12.101Z,97265.28
2022-11-10T07:08:43.977Z,97264.66
2022-11-10T07:10:15.778Z,97274.03
2022-11-10T07:11:47.743Z,97267.63
2022-11-10T07:13:19.775Z,97270.28
2022-11-10T07:14:53.226Z,97275.59
2022-11-10T07:16:24.956Z,97281.13
2022-11-10T07:17:56.761Z,97283.19
2022-11-10T07:19:28.586Z,97289.09
2022-11-10T07:21:02.375Z,97284.19
2022-11-10T07:22:34.104Z,97286.81
2022-11-10T07:24:06.851Z,97286.34
2022-11-10T07:25:39.165Z,97287.28
2022-11-10T07:27:10.929Z,97287.13
2022-11-10T07:28:42.866Z,97285.38
2022-11-10T07:30:16.021Z,97290.88
2022-11-10T07:31:47.827Z,97284.63
2022-11-10T07:33:19.934Z,97280.56
2022-11-10T07:34:51.940Z,97293.13
2022-11-10T07:36:23.678Z,97292.81
2022-11-10T07:37:55.687Z,97297.69
2022-11-10T07:39:27.659Z,97306.31
2022-11-10T07:40:59.392Z,97315.25
2022-11-10T07:42:31.149Z,97317.13
2022-11-10T07:44:02.909Z,97331.09
2022-11-10T07:45:36.440Z,97329.75
2022-11-10T07:47:08.268Z,97336.78
2022-11-10T07:48:40.021Z,97337.59
2022-11-10T07:50:11.766Z,97338.88
2022-11-10T07:51:43.590Z,97348.53
2022-11-10T07:53:15.969Z,97343.84
2022-11-10T07:54:47.843Z,97345.09
2022-11-10T07:56:19.764Z,97344.63
2022-11-10T07:57:51.538Z,97343.38
2022-11-10T07:59:23.382Z,97349.66
2022-11-10T08:00:56.563Z,97352.00
2022-11-10T08:02:28.353Z,97361.75
2022-11-10T08:04:00.162Z,97358.78
2022-11-10T08:05:32.085Z,97360.50
2022-11-10T08:07:03.971Z,97358.47
2022-11-10T08:08:35.896Z,97363.94
2022-11-10T08:10:08.854Z,97363.63
2022-11-10T08:11:40.794Z,97363.19
2022-11-10T08:13:13.022Z,97355.22
2022-11-10T08:14:44.784Z,97365.25
2022-11-10T08:16:18.783Z,97363.03
2022-11-10T08:17:50.526Z,97364.88
2022-11-10T08:19:22.253Z,97361.28
2022-11-10T08:20:54.029Z,97363.38
2022-11-10T08:22:25.934Z,97361.19
2022-11-10T08:23:57.664Z,97363.69
2022-11-10T08:25:34.422Z,97373.72
2022-11-10T08:27:06.444Z,97381.38
2022-11-10T08:28:38.209Z,97386.53
2022-11-10T08:30:10.578Z,97383.25
2022-11-10T08:31:43.799Z,97388.13
2022-11-10T08:33:16.332Z,97387.03
2022-11-10T08:34:48.061Z,97391.31
2022-11-10T08:36:19.851Z,97389.84
2022-11-10T08:37:51.638Z,97388.16
2022-11-10T08:39:38.006Z,97395.06
2022-11-10T08:41:10.250Z,97392.72
2022-11-10T08:42:42.051Z,97395.22
2022-11-10T08:44:19.645Z,97406.34
2022-11-10T08:45:54.198Z,97411.22
2022-11-10T08:47:27.410Z,97416.69
2022-11-10T08:48:59.185Z,97415.44
2022-11-10T08:50:31.138Z,97412.13
2022-11-10T08:52:03.023Z,97405.81
2022-11-10T08:53:37.318Z,97414.13
2022-11-10T08:55:09.389Z,97414.47
2022-11-10T08:56:41.218Z,97414.19
2022-11-10T08:58:13.793Z,97410.41
2022-11-10T08:59:45.544Z,97417.78
2022-11-10T09:01:17.269Z,97417.88
2022-11-10T09:02:50.414Z,97417.59
2022-11-10T09:04:22.213Z,97414.75
2022-11-10T09:05:58.311Z,97416.00
2022-11-10T09:08:00.107Z,97422.09
2022-11-10T09:09:31.821Z,97431.88
2022-11-10T09:11:06.548Z,97434.56
2022-11-10T09:12:38.222Z,97438.34
2022-11-10T09:14:10.161Z,97437.38
2022-11-10T09:15:41.938Z,97436.16
2022-11-10T09:17:13.692Z,97445.09
2022-11-10T09:18:47.037Z,97450.22
2022-11-10T09:20:18.896Z,97444.47
2022-11-10T09:21:52.301Z,97450.56
2022-11-10T09:23:25.515Z,97454.81
2022-11-10T09:24:57.385Z,97452.31
2022-11-10T09:26:29.091Z,97447.91
2022-11-10T09:28:02.225Z,97457.47
2022-11-10T09:29:34.004Z,97453.56
2022-11-10T09:31:14.258Z,97461.41
2022-11-10T09:32:48.686Z,97460.63
2022-11-10T09:34:22.323Z,97462.03
2022-11-10T09:35:57.596Z,97463.44
2022-11-10T09:37:29.373Z,97465.16
2022-11-10T09:39:01.102Z,97464.69
2022-11-10T09:40:39.675Z,97471.28
2022-11-10T09:42:24.105Z,97466.72
2022-11-10T09:44:01.823Z,97459.97
2022-11-10T09:45:38.841Z,97466.28
2022-11-10T09:47:15.009Z,97458.25
2022-11-10T09:48:51.961Z,97471.44
2022-11-10T09:50:29.827Z,97468.63
2022-11-10T09:52:01.617Z,97462.81
2022-11-10T09:53:36.813Z,97468.75
2022-11-10T09:55:18.888Z,97464.84
2022-11-10T09:56:50.593Z,97468.13
2022-11-10T09:58:22.845Z,97465.94
2022-11-10T09:59:54.853Z,97469.69
2022-11-10T10:01:30.769Z,97467.94
2022-11-10T10:03:03.246Z,97468.72
2022-11-10T10:04:51.617Z,97475.81
2022-11-10T10:06:30.527Z,97473.13
2022-11-10T10:08:11.025Z,97478.94
2022-11-10T10:09:46.742Z,97480.19
2022-11-10T10:11:26.603Z,97475.59
2022-11-10T10:13:04.678Z,97471.84
2022-11-10T10:14:45.066Z,97485.47
2022-11-10T10:16:18.016Z,97482.38
2022-11-10T10:17:54.682Z,97477.31
2022-11-10T10:19:29.627Z,97479.16
2022-11-10T10:21:11.707Z,97487.97
2022-11-10T10:22:52.509Z,97476.50
2022-11-10T10:24:27.101Z,97482.63
2022-11-10T10:25:58.853Z,97476.50
2022-11-10T10:27:30.706Z,97477.50
2022-11-10T10:29:07.290Z,97479.16
2022-11-10T10:30:40.190Z,97484.50
2022-11-10T10:32:12.611Z,97484.97
2022-11-10T10:33:44.361Z,97493.81
2022-11-10T10:35:16.866Z,97490.03
2022-11-10T10:36:48.695Z,97484.06
2022-11-10T10:38:23.973Z,97485.16
2022-11-10T10:39:55.980Z,97493.81
2022-11-10T10:41:28.545Z,97491.41
2022-11-10T10:43:00.349Z,97495.63
2022-11-10T10:44:32.071Z,97495.97
2022-11-10T10:46:06.679Z,97495.09
2022-11-10T10:47:38.547Z,97498.06
2022-11-10T10:49:28.225Z,97487.72
2022-11-10T10:51:00.767Z,97501.50
2022-11-10T10:52:32.529Z,97500.81
2022-11-10T10:54:05.727Z,97506.72
2022-11-10T10:55:44.691Z,97500.31
2022-11-10T10:57:21.288Z,97505.91
2022-11-10T10:58:54.255Z,97496.63
2022-11-10T11:00:26.328Z,97497.34
2022-11-10T11:01:58.331Z,97504.41
2022-11-10T11:03:37.135Z,97507.91
2022-11-10T11:05:10.719Z,97509.41
2022-11-10T11:06:42.337Z,97504.00
2022-11-10T11:08:17.678Z,97502.16
2022-11-10T11:09:50.935Z,97509.47
2022-11-10T11:11:24.678Z,97512.88
2022-11-10T11:13:04.463Z,97515.16
2022-11-10T11:14:36.215Z,97516.06
2022-11-10T11:16:09.408Z,97513.13
2022-11-10T11:17:41.466Z,97508.88
2022-11-10T11:19:13.311Z,97519.00
2022-11-10T11:20:48.359Z,97522.00
2022-11-10T11:22:37.641Z,97504.66
2022-11-10T11:24:15.541Z,97513.78
2022-11-10T11:25:48.506Z,97502.81
2022-11-10T11:27:22.551Z,97505.97
2022-11-10T11:29:03.367Z,97492.69
2022-11-10T11:30:42.230Z,97491.28
2022-11-10T11:32:33.372Z,97496.06
2022-11-10T11:34:07.045Z,97499.59
2022-11-10T11:35:44.263Z,97504.31
2022-11-10T11:37:19.625Z,97494.22
2022-11-10T11:38:54.547Z,97500.06
2022-11-10T11:40:28.287Z,97485.81
2022-11-10T11:42:06.716Z,97487.84
2022-11-10T11:44:06.696Z,97501.06
2022-11-10T11:45:45.031Z,97490.84
2022-11-10T11:47:23.251Z,97494.34
2022-11-10T11:49:01.352Z,97498.63
2022-11-10T11:50:36.757Z,97498.84
2022-11-10T11:52:10.759Z,97491.66
2022-11-10T11:53:52.674Z,97498.13
2022-11-10T11:55:31.266Z,97495.78
2022-11-10T11:57:13.080Z,97490.75
2022-11-10T11:58:45.988Z,97502.63
2022-11-10T12:00:18.449Z,97495.25
2022-11-10T12:02:02.801Z,97501.31
2022-11-10T12:03:39.891Z,97501.78
2022-11-10T12:05:16.776Z,97501.06
2022-11-10T12:06:54.607Z,97506.34
2022-11-10T12:08:32.628Z,97500.06
2022-11-10T12:10:10.829Z,97499.16
2022-11-10T12:11:51.139Z,97494.16
2022-11-10T12:13:37.092Z,97500.41
2022-11-10T12:15:16.484Z,97494.88
2022-11-10T12:16:53.608Z,97491.56
2022-11-10T12:18:30.133Z,97490.47
2022-11-10T12:20:05.941Z,97487.94
2022-11-10T12:21:50.131Z,97488.81
2022-11-10T12:23:24.719Z,97487.44
2022-11-10T12:25:13.976Z,97491.63
2022-11-10T12:27:01.287Z,97488.63
2022-11-10T12:28:36.466Z,97490.78
2022-11-10T12:30:11.431Z,97484.91
2022-11-10T12:31:44.043Z,97482.53
2022-11-10T12:33:20.068Z,97487.66
2022-11-10T12:34:56.043Z,97476.31
2022-11-10T12:36:28.037Z,97482.38
2022-11-10T12:38:01.764Z,97480.31
2022-11-10T12:39:40.384Z,97486.16
2022-11-10T12:41:14.585Z,97486.03
2022-11-10T12:42:47.342Z,97480.56
2022-11-10T12:44:22.816Z,97481.09
2022-11-10T12:45:57.292Z,97481.97
2022-11-10T12:47:31.663Z,97485.50
2022-11-10T12:49:08.037Z,97482.75
2022-11-10T12:50:45.838Z,97478.66
2022-11-10T12:52:19.649Z,97481.31
2022-11-10T12:53:51.519Z,97470.78
2022-11-10T12:55:30.802Z,97478.13
2022-11-10T12:57:04.840Z,97479.84
2022-11-10T12:58:38.429Z,97472.56
2022-11-10T13:00:28.174Z,97475.91
2022-11-10T13:02:02.889Z,97480.78
2022-11-10T13:03:36.409Z,97486.88
2022-11-10T13:05:20.693Z,97487.19
2022-11-10T13:06:53.611Z,97479.19
2022-11-10T13:08:28.369Z,97477.16
2022-11-10T13:10:17.506Z,97478.84
2022-11-10T13:12:19.260Z,97474.34
2022-11-10T13:13:58.180Z,97480.13
2022-11-10T13:15:55.043Z,97476.34
2022-11-10T13:17:53.911Z,97485.53
2022-11-10T13:19:48.169Z,97481.84
2022-11-10T13:21:19.952Z,97474.34
2022-11-10T13:22:51.832Z,97472.81
2022-11-10T13:24:24.629Z,97473.38
2022-11-10T13:25:58.841Z,97474.38
2022-11-10T13:27:57.652Z,97471.09
2022-11-10T13:29:37.695Z,97468.59
2022-11-10T13:31:39.759Z,97461.84
2022-11-10T13:33:36.103Z,97472.38
2022-11-10T13:35:45.774Z,97467.25
2022-11-10T13:37:46.998Z,97466.53
2022-11-10T13:39:26.951Z,97460.22
2022-11-10T13:41:22.270Z,97464.09
2022-11-10T13:43:24.825Z,97464.31
2022-11-10T13:45:13.112Z,97459.72
2022-11-10T13:47:06.210Z,97462.09
2022-11-10T13:48:47.344Z,97465.19
2022-11-10T13:50:31.232Z,97468.94
2022-11-10T13:52:08.689Z,97460.09
2022-11-10T13:53:44.927Z,97463.84
2022-11-10T13:55:25.354Z,97465.88
2022-11-10T13:57:12.876Z,97472.69
2022-11-10T13:58:44.630Z,97473.13
2022-11-10T14:00:24.803Z,97475.06
2022-11-10T14:02:32.322Z,97459.78
2022-11-10T14:04:05.705Z,97466.63
2022-11-10T14:06:09.143Z,97471.25
2022-11-10T14:07:44.673Z,97458.44
2022-11-10T14:09:23.550Z,97470.84
2022-11-10T14:10:57.652Z,97472.00
2022-11-10T14:12:30.813Z,97476.94
2022-11-10T14:14:04.447Z,97471.66
2022-11-10T14:15:39.201Z,97473.94
2022-11-10T14:17:15.607Z,97465.38
2022-11-10T14:18:58.973Z,97460.94
2022-11-10T14:20:34.678Z,97463.47
2022-11-10T14:22:14.758Z,97466.84
2022-11-10T14:23:47.817Z,97465.34
2022-11-10T14:25:20.859Z,97457.56
2022-11-10T14:26:53.394Z,97465.03
2022-11-10T14:28:26.726Z,97463.22
2022-11-10T14:30:19.730Z,97462.75
2022-11-10T14:31:51.557Z,97466.31
2022-11-10T14:33:23.313Z,97469.47
2022-11-10T14:34:56.308Z,97466.78
2022-11-10T14:36:29.492Z,97477.72
2022-11-10T14:39:34.245Z,97475.44
2022-11-10T14:41:06.400Z,97476.81
2022-11-10T14:42:38.317Z,97479.16
2022-11-10T14:44:22.809Z,97486.31
2022-11-10T14:45:54.649Z,97489.94
2022-11-10T14:47:27.505Z,97490.72
2022-11-10T14:49:00.244Z,97495.63
2022-11-10T14:50:32.872Z,97489.34
2022-11-10T14:52:06.046Z,97480.69
2022-11-10T14:53:39.934Z,97480.81
2022-11-10T14:55:15.321Z,97491.00
2022-11-10T14:56:47.700Z,97485.56
2022-11-10T14:58:23.240Z,97488.44
2022-11-10T14:59:55.706Z,97493.47
2022-11-10T15:01:29.127Z,97490.84
2022-11-10T15:03:01.002Z,97482.88
2022-11-10T15:04:33.292Z,97485.09
2022-11-10T15:06:07.876Z,97479.88
2022-11-10T15:07:41.104Z,97480.53
2022-11-10T15:09:13.348Z,97478.09
2022-11-10T15:10:47.617Z,97483.72
2022-11-10T15:12:21.410Z,97486.19
2022-11-10T15:13:53.194Z,97491.63
2022-11-10T15:15:25.044Z,97489.00
2022-11-10T15:17:00.857Z,97488.34
2022-11-10T15:18:32.463Z,97485.50
2022-11-10T15:20:04.623Z,97491.63
2022-11-10T15:21:36.690Z,97489.13
2022-11-10T15:23:19.147Z,97489.66
2022-11-10T15:24:50.930Z,97494.50
2022-11-10T15:26:23.698Z,97495.09
2022-11-10T15:27:57.613Z,97496.91
2022-11-10T15:29:29.774Z,97496.78
2022-11-10T15:31:02.966Z,97491.16
2022-11-10T15:32:35.426Z,97498.53
2022-11-10T15:34:28.459Z,97500.06
2022-11-10T15:36:14.538Z,97492.50
2022-11-10T15:37:57.822Z,97502.28
2022-11-10T15:39:31.014Z,97500.81
2022-11-10T15:41:13.893Z,97495.91
2022-11-10T15:42:56.370Z,97497.09
2022-11-10T15:44:28.146Z,97496.16
2022-11-10T15:46:00.440Z,97493.88
2022-11-10T15:47:35.191Z,97491.16
2022-11-10T15:49:09.908Z,97491.81
2022-11-10T15:50:42.150Z,97491.38
2022-11-10T15:52:18.972Z,97490.78
2022-11-10T15:53:50.900Z,97495.06
2022-11-10T15:55:24.190Z,97494.16
2022-11-10T15:56:56.141Z,97489.84
2022-11-10T15:58:28.235Z,97490.38
2022-11-10T16:00:00.019Z,97495.47
2022-11-10T16:01:31.923Z,97494.63
2022-11-10T16:03:04.510Z,97502.19
2022-11-10T16:04:36.299Z,97513.78
2022-11-10T16:06:11.084Z,97516.69
2022-11-10T16:07:42.823Z,97519.91
2022-11-10T16:09:14.604Z,97530.56
2022-11-10T16:10:48.929Z,97526.78
2022-11-10T16:12:21.237Z,97529.47
2022-11-10T16:13:53.075Z,97524.44
2022-11-10T16:15:24.960Z,97536.38
2022-11-10T16:17:14.864Z,97537.94
2022-11-10T16:18:46.898Z,97541.09
2022-11-10T16:20:18.715Z,97546.59
2022-11-10T16:21:50.552Z,97547.22
2022-11-10T16:23:22.645Z,97543.31
2022-11-10T16:24:54.463Z,97549.25
2022-11-10T16:26:27.842Z,97550.19
2022-11-10T16:28:08.141Z,97543.59
2022-11-10T16:29:40.128Z,97547.38
2022-11-10T16:31:11.862Z,97553.34
2022-11-10T16:32:43.579Z,97561.41
2022-11-10T16:34:15.372Z,97554.59
2022-11-10T16:35:49.007Z,97568.38
2022-11-10T16:37:20.809Z,97564.31
2022-11-10T16:38:53.191Z,97553.66
2022-11-10T16:40:25.017Z,97564.94
2022-11-10T16:41:58.300Z,97562.91
2022-11-10T16:43:30.865Z,97575.28
2022-11-10T16:45:02.747Z,97576.16
2022-11-10T16:46:34.562Z,97575.59
2022-11-10T16:48:06.413Z,97582.69
2022-11-10T16:49:43.656Z,97575.41
2022-11-10T16:51:16.285Z,97577.84
2022-11-10T16:52:48.035Z,97585.59
2022-11-10T16:54:19.863Z,97573.97
2022-11-10T16:55:51.634Z,97574.91
2022-11-10T16:57:25.105Z,97582.34
2022-11-10T16:58:56.961Z,97578.72
2022-11-10T17:00:28.812Z,97589.63
2022-11-10T17:02:00.668Z,97583.53
2022-11-10T17:03:33.386Z,97585.00
2022-11-10T17:05:05.724Z,97577.44
2022-11-10T17:06:40.380Z,97576.94
2022-11-10T17:08:19.666Z,97585.41
2022-11-10T17:09:51.472Z,97595.00
2022-11-10T17:11:24.123Z,97595.28
2022-11-10T17:12:57.306Z,97603.38
2022-11-10T17:14:35.029Z,97605.25
2022-11-10T17:16:07.850Z,97614.41
2022-11-10T17:17:39.705Z,97603.91
2022-11-10T17:19:16.472Z,97604.38
2022-11-10T17:20:49.259Z,97603.13
2022-11-10T17:22:23.780Z,97612.84
2022-11-10T17:23:55.638Z,97607.09
2022-11-10T17:25:29.478Z,97608.81
2022-11-10T17:27:01.198Z,97609.63
2022-11-10T17:28:34.343Z,97612.28
2022-11-10T17:30:09.184Z,97618.34
2022-11-10T17:31:41.013Z,97621.28
2022-11-10T17:33:12.924Z,97619.91
2022-11-10T17:34:44.996Z,97617.69
2022-11-10T17:36:18.749Z,97624.50
2022-11-10T17:37:52.148Z,97622.22
2022-11-10T17:39:23.882Z,97622.56
2022-11-10T17:40:55.923Z,97625.25
2022-11-10T17:42:29.958Z,97627.66
2022-11-10T17:44:03.354Z,97635.72
2022-11-10T17:45:35.078Z,97632.41
2022-11-10T17:47:06.787Z,97632.09
2022-11-10T17:48:38.537Z,97634.56
2022-11-10T17:50:10.331Z,97637.56
2022-11-10T17:51:42.128Z,97643.06
2022-11-10T17:53:17.164Z,97651.44
2022-11-10T17:54:49.010Z,97652.75
2022-11-10T17:56:20.926Z,97653.75
2022-11-10T17:57:54.830Z,97654.06
2022-11-10T17:59:28.052Z,97656.22
2022-11-10T18:00:59.911Z,97653.63
2022-11-10T18:02:31.696Z,97653.50
2022-11-10T18:04:05.488Z,97658.59
2022-11-10T18:05:37.749Z,97660.75
2022-11-10T18:07:09.611Z,97653.81
2022-11-10T18:08:44.325Z,97660.50
2022-11-10T18:10:16.169Z,97663.53
2022-11-10T18:11:47.978Z,97660.88
2022-11-10T18:13:23.027Z,97666.91
2022-11-10T18:15:03.058Z,97665.22
2022-11-10T18:16:37.927Z,97667.41
2022-11-10T18:18:11.739Z,97665.50
2022-11-10T18:19:43.639Z,97664.97
2022-11-10T18:21:15.486Z,97660.41
2022-11-10T18:22:47.247Z,97657.06
2022-11-10T18:24:19.031Z,97650.97
2022-11-10T18:25:50.890Z,97654.69
2022-11-10T18:27:22.653Z,97652.50
2022-11-10T18:28:54.846Z,97645.44
2022-11-10T18:30:32.280Z,97651.88
2022-11-10T18:32:09.273Z,97654.13